• Join FlightAware (Why Join?)
  • Login
  • US Flag 
Gobble Gobble! 
07:08AM EST


 

Airport Tracker/Info


-or-


 

Live Flight TrackerFlight Track Log ✈ ANA1187 ✈ 21-Nov-2013 ✈ RJTT / HND - RCSS / TSA

Flight Track Log - Related Links

Times and Time Zones

All times are in EST time to prevent confusion due to time zone crossing. See the ANA1187 flight status page for this flight to view local times or setup timezone preferences in your user account.

Time Position Orientation Groundspeed Altitude Reporting Facility
EST Latitude Longitude Course Direction KTS MPH feet Rate Location/Type
11:46PM 35.5380 139.8760 133° Southeast 186 214 3,800  Level FlightAware ADS-B
11:46PM 35.5290 139.8840 144° Southeast 198 228 4,200 1,800 Climbing FlightAware ADS-B
11:47PM 35.5120 139.8890 167° South 219 252 4,700 1,680 Climbing FlightAware ADS-B
11:47PM 35.5060 139.8880 188° South 227 261 4,900 2,700 Climbing FlightAware ADS-B
11:47PM 35.5010 139.8860 198° South 230 265 5,200 2,580 Climbing FlightAware ADS-B
11:47PM 35.4810 139.8760 202° Southwest 247 284 5,900 2,460 Climbing FlightAware ADS-B
11:47PM 35.4690 139.8670 211° Southwest 256 295 6,500 3,240 Climbing FlightAware ADS-B
11:48PM 35.4440 139.8480 212° Southwest 270 311 7,900 3,360 Climbing FlightAware ADS-B
11:48PM 35.4270 139.8340 214° Southwest 274 315 8,800 3,660 Climbing FlightAware ADS-B
11:48PM 35.3930 139.8070 213° Southwest 283 326 10,800 2,820 Climbing FlightAware ADS-B
11:49PM 35.3570 139.7800 211° Southwest 318 366 11,700 1,920 Climbing FlightAware ADS-B
11:49PM 35.3190 139.7500 213° Southwest 347 399 12,700 2,940 Climbing FlightAware ADS-B
11:50PM 35.2770 139.7000 224° Southwest 348 400 15,000 3,900 Climbing FlightAware ADS-B
11:51PM 35.2450 139.6570 228° Southwest 340 391 17,100 3,720 Climbing FlightAware ADS-B
11:51PM 35.2130 139.6140 228° Southwest 345 397 18,700 3,300 Climbing FlightAware ADS-B
11:52PM 35.1800 139.5710 227° Southwest 347 399 20,400 3,360 Climbing FlightAware ADS-B
11:54PM 35.0893 139.3643 242° Southwest  Level Estimated
11:55PM 35.0423 139.2576 242° Southwest  Level Estimated
11:56PM 34.9951 139.1509 242° Southwest  Level Estimated
11:57PM 34.9479 139.0444 242° Southwest  Level Estimated
11:58PM 34.9006 138.9381 242° Southwest  Level Estimated
11:59PM 34.8531 138.8318 241° Southwest  Level Estimated
12:00AM 34.8056 138.7257 241° Southwest  Level Estimated
12:01AM 34.7580 138.6197 241° Southwest  Level Estimated
12:02AM 34.7103 138.5138 241° Southwest  Level Estimated
12:03AM 34.6625 138.4081 241° Southwest  Level Estimated
12:04AM 34.6147 138.3024 241° Southwest  Level Estimated
12:05AM 34.5667 138.1969 241° Southwest  Level Estimated
12:06AM 34.5186 138.0916 241° Southwest  Level Estimated
12:07AM 34.4705 137.9863 241° Southwest  Level Estimated
12:08AM 34.4222 137.8811 241° Southwest  Level Estimated
12:09AM 34.3739 137.7761 241° Southwest  Level Estimated
12:10AM 34.3255 137.6712 241° Southwest  Level Estimated
12:11AM 34.2770 137.5664 241° Southwest  Level Estimated
12:12AM 34.2284 137.4618 241° Southwest  Level Estimated
12:13AM 34.1797 137.3572 241° Southwest  Level Estimated
12:14AM 34.1309 137.2528 241° Southwest  Level Estimated
12:15AM 34.0821 137.1485 241° Southwest  Level Estimated
12:16AM 34.0331 137.0443 240° Southwest  Level Estimated
12:17AM 33.9841 136.9403 240° Southwest  Level Estimated
12:18AM 33.9349 136.8363 240° Southwest  Level Estimated
12:19AM 33.8857 136.7325 240° Southwest  Level Estimated
12:20AM 33.8364 136.6288 240° Southwest  Level Estimated
12:21AM 33.7870 136.5252 240° Southwest  Level Estimated
12:22AM 33.7376 136.4218 240° Southwest  Level Estimated
12:23AM 33.6880 136.3184 240° Southwest  Level Estimated
12:24AM 33.6384 136.2152 240° Southwest  Level Estimated
12:25AM 33.5886 136.1121 240° Southwest  Level Estimated
12:26AM 33.5388 136.0091 240° Southwest  Level Estimated
12:27AM 33.4889 135.9063 240° Southwest  Level Estimated
12:28AM 33.4389 135.8035 240° Southwest  Level Estimated
12:29AM 33.3888 135.7009 240° Southwest  Level Estimated
12:30AM 33.3387 135.5984 240° Southwest  Level Estimated
12:31AM 33.2884 135.4960 240° Southwest  Level Estimated
12:32AM 33.2381 135.3937 240° Southwest  Level Estimated
12:33AM 33.1877 135.2915 239° Southwest  Level Estimated
12:34AM 33.1372 135.1895 239° Southwest  Level Estimated
12:35AM 33.0867 135.0876 239° Southwest  Level Estimated
12:36AM 33.0360 134.9858 239° Southwest  Level Estimated
12:37AM 32.9852 134.8841 239° Southwest  Level Estimated
12:38AM 32.9344 134.7825 239° Southwest  Level Estimated
12:39AM 32.8835 134.6811 239° Southwest  Level Estimated
12:40AM 32.8325 134.5797 239° Southwest  Level Estimated
12:41AM 32.7815 134.4785 239° Southwest  Level Estimated
12:42AM 32.7303 134.3774 239° Southwest  Level Estimated
12:43AM 32.6791 134.2764 239° Southwest  Level Estimated
12:44AM 32.6278 134.1756 239° Southwest  Level Estimated
12:45AM 32.5764 134.0748 239° Southwest  Level Estimated
12:46AM 32.5249 133.9742 239° Southwest  Level Estimated
12:47AM 32.4734 133.8736 239° Southwest  Level Estimated
12:48AM 32.4217 133.7732 239° Southwest  Level Estimated
12:49AM 32.3700 133.6729 239° Southwest  Level Estimated
12:50AM 32.3182 133.5728 239° Southwest  Level Estimated
12:51AM 32.2664 133.4727 239° Southwest  Level Estimated
12:52AM 32.2144 133.3727 238° Southwest  Level Estimated
12:53AM 32.1624 133.2729 238° Southwest  Level Estimated
12:54AM 32.1103 133.1732 238° Southwest  Level Estimated
12:55AM 32.0581 133.0736 238° Southwest  Level Estimated
12:56AM 32.0059 132.9741 238° Southwest  Level Estimated
12:57AM 31.9535 132.8747 238° Southwest  Level Estimated
12:58AM 31.9011 132.7754 238° Southwest  Level Estimated
12:59AM 31.8486 132.6763 238° Southwest  Level Estimated
01:00AM 31.7960 132.5772 238° Southwest  Level Estimated
01:01AM 31.7434 132.4783 238° Southwest  Level Estimated
01:02AM 31.6907 132.3795 238° Southwest  Level Estimated
01:03AM 31.6379 132.2808 238° Southwest  Level Estimated
01:04AM 31.5850 132.1822 238° Southwest  Level Estimated
01:05AM 31.5320 132.0837 238° Southwest  Level Estimated
01:06AM 31.4790 131.9853 238° Southwest  Level Estimated
01:07AM 31.4259 131.8871 238° Southwest  Level Estimated
01:08AM 31.3727 131.7889 238° Southwest  Level Estimated
01:09AM 31.3195 131.6909 238° Southwest  Level Estimated
01:10AM 31.2662 131.5930 238° Southwest  Level Estimated
01:11AM 31.2128 131.4951 237° Southwest  Level Estimated
01:12AM 31.1593 131.3974 237° Southwest  Level Estimated
01:13AM 31.1057 131.2999 237° Southwest  Level Estimated
01:14AM 31.0521 131.2024 237° Southwest  Level Estimated
01:15AM 30.9984 131.1050 237° Southwest  Level Estimated
01:16AM 30.9447 131.0077 237° Southwest  Level Estimated
01:17AM 30.8908 130.9106 237° Southwest  Level Estimated
01:18AM 30.8369 130.8136 237° Southwest  Level Estimated
01:19AM 30.7829 130.7166 237° Southwest  Level Estimated
01:20AM 30.7289 130.6198 237° Southwest  Level Estimated
01:21AM 30.6747 130.5231 237° Southwest  Level Estimated
01:22AM 30.6205 130.4265 237° Southwest  Level Estimated
01:23AM 30.5663 130.3300 237° Southwest  Level Estimated
01:24AM 30.5119 130.2336 237° Southwest  Level Estimated
01:25AM 30.4575 130.1373 237° Southwest  Level Estimated
01:26AM 30.4030 130.0411 237° Southwest  Level Estimated
01:27AM 30.3485 129.9450 237° Southwest  Level Estimated
01:28AM 30.2939 129.8491 237° Southwest  Level Estimated
01:29AM 30.2392 129.7532 237° Southwest  Level Estimated
01:30AM 30.1844 129.6575 237° Southwest  Level Estimated
01:31AM 30.1296 129.5618 236° Southwest  Level Estimated
01:32AM 30.0747 129.4663 236° Southwest  Level Estimated
01:33AM 30.0197 129.3708 236° Southwest  Level Estimated
01:34AM 29.9647 129.2755 236° Southwest  Level Estimated
01:35AM 29.9096 129.1803 236° Southwest  Level Estimated
01:36AM 29.8544 129.0852 236° Southwest  Level Estimated
01:37AM 29.7992 128.9902 236° Southwest  Level Estimated
01:38AM 29.7438 128.8953 236° Southwest  Level Estimated
01:39AM 29.6885 128.8005 236° Southwest  Level Estimated
01:40AM 29.6330 128.7058 236° Southwest  Level Estimated
01:41AM 29.5775 128.6112 236° Southwest  Level Estimated
01:42AM 29.5219 128.5167 236° Southwest  Level Estimated
01:43AM 29.4663 128.4223 236° Southwest  Level Estimated
01:44AM 29.4106 128.3280 236° Southwest  Level Estimated
01:45AM 29.3548 128.2339 236° Southwest  Level Estimated
01:46AM 29.2989 128.1398 236° Southwest  Level Estimated
01:47AM 29.2430 128.0458 236° Southwest  Level Estimated
01:48AM 29.1870 127.9519 236° Southwest  Level Estimated
01:49AM 29.1310 127.8582 236° Southwest  Level Estimated
01:50AM 29.0749 127.7645 236° Southwest  Level Estimated
01:51AM 29.0187 127.6710 236° Southwest  Level Estimated
01:52AM 28.9625 127.5775 235° Southwest  Level Estimated
01:53AM 28.9062 127.4841 235° Southwest  Level Estimated
01:54AM 28.8498 127.3909 235° Southwest  Level Estimated
01:55AM 28.7934 127.2977 235° Southwest  Level Estimated
01:56AM 28.7369 127.2047 235° Southwest  Level Estimated
01:57AM 28.6803 127.1117 235° Southwest  Level Estimated
01:58AM 28.6237 127.0189 235° Southwest  Level Estimated
01:59AM 28.5670 126.9261 235° Southwest  Level Estimated
02:00AM 28.5103 126.8335 235° Southwest  Level Estimated
02:01AM 28.4534 126.7409 235° Southwest  Level Estimated
02:02AM 28.3966 126.6485 235° Southwest  Level Estimated
02:03AM 28.3396 126.5561 235° Southwest  Level Estimated
02:04AM 28.2826 126.4638 235° Southwest  Level Estimated
02:05AM 28.2256 126.3717 235° Southwest  Level Estimated
02:06AM 28.1685 126.2796 235° Southwest  Level Estimated
02:07AM 28.1113 126.1877 235° Southwest  Level Estimated
02:08AM 28.0540 126.0958 235° Southwest  Level Estimated
02:09AM 27.9967 126.0040 235° Southwest  Level Estimated
02:10AM 27.9394 125.9124 235° Southwest  Level Estimated
02:11AM 27.8819 125.8208 235° Southwest  Level Estimated
02:12AM 27.8244 125.7293 235° Southwest  Level Estimated
02:13AM 27.7669 125.6379 235° Southwest  Level Estimated
02:14AM 27.7093 125.5467 235° Southwest  Level Estimated
02:15AM 27.6516 125.4555 234° Southwest  Level Estimated
02:16AM 27.5939 125.3644 234° Southwest  Level Estimated
02:17AM 27.5361 125.2734 234° Southwest  Level Estimated
02:18AM 27.4782 125.1825 234° Southwest  Level Estimated
02:19AM 27.4203 125.0917 234° Southwest  Level Estimated
02:20AM 27.3624 125.0010 234° Southwest  Level Estimated
02:21AM 27.3043 124.9104 234° Southwest  Level Estimated
02:22AM 27.2463 124.8199 234° Southwest  Level Estimated
02:23AM 27.1881 124.7295 234° Southwest  Level Estimated
02:24AM 27.1299 124.6391 234° Southwest  Level Estimated
02:25AM 27.0717 124.5489 234° Southwest  Level Estimated
02:26AM 27.0134 124.4588 234° Southwest  Level Estimated
02:27AM 26.9550 124.3687 234° Southwest  Level Estimated
02:28AM 26.8966 124.2788 234° Southwest  Level Estimated
02:29AM 26.8381 124.1889 234° Southwest  Level Estimated
02:30AM 26.7796 124.0992 234° Southwest  Level Estimated
02:31AM 26.7209 124.0095 234° Southwest  Level Estimated
02:32AM 26.6623 123.9199 234° Southwest  Level Estimated
02:33AM 26.6036 123.8304 234° Southwest  Level Estimated
02:34AM 26.5448 123.7410 234° Southwest  Level Estimated
02:35AM 26.4860 123.6517 234° Southwest  Level Estimated
02:36AM 26.4271 123.5625 234° Southwest  Level Estimated
02:37AM 26.3682 123.4734 234° Southwest  Level Estimated
02:38AM 26.3092 123.3844 234° Southwest  Level Estimated
02:39AM 26.2502 123.2954 234° Southwest  Level Estimated
02:40AM 26.1911 123.2066 233° Southwest  Level Estimated
02:41AM 26.1319 123.1178 233° Southwest  Level Estimated
02:42AM 26.0727 123.0291 233° Southwest  Level Estimated
02:43AM 26.0135 122.9406 233° Southwest  Level Estimated
02:44AM 25.9541 122.8521 233° Southwest  Level Estimated
02:45AM 25.8948 122.7637 233° Southwest  Level Estimated
02:46AM 25.8354 122.6753 233° Southwest  Level Estimated
02:47AM 25.7759 122.5871 233° Southwest  Level Estimated
02:48AM 25.7164 122.4990 233° Southwest  Level Estimated
02:49AM 25.6568 122.4109 233° Southwest  Level Estimated
02:50AM 25.5972 122.3230 233° Southwest  Level Estimated
02:51AM 25.5375 122.2351 233° Southwest  Level Estimated
02:52AM 25.4777 122.1473 233° Southwest  Level Estimated
02:53AM 25.4179 122.0596 233° Southwest  Level Estimated
02:54AM 25.3581 121.9720 233° Southwest  Level Estimated
02:55AM 25.2982 121.8845 233° Southwest  Level Estimated
02:56AM 25.2383 121.7971 233° Southwest  Level Estimated
02:57AM 25.1783 121.7097 233° Southwest  Level Estimated
02:58AM 25.1182 121.6224 233° Southwest  Level Estimated
02:59AM 25.0694 121.5517 233° Southwest  Level Estimated
03:00AM 25.0694 121.5517 326° Northwest  Level Estimated
03:01AM 25.0694 121.5517 326° Northwest  Level Estimated
03:02AM 25.0694 121.5517 326° Northwest  Level Estimated